Newton, Georgia
Current Conditions -  °F | °C
As of 11:53 AM on Thursday 30 Oct 2014 (Local Time) from KABY Reporting Station
Clear Clear  
Wind Chill: 66°   Ceiling: Unl
Heat Index: 66°   Visibility: 10mi
Dew Point: 46°   Wind: 7mph
Humidity: 48%   Direction: 360°N
Pressure: 30.07"   Gusts: NA
Location:  31.31°N, 84.34°W
Report Text: KABY 301553Z 36006KT 10SM CLR 19/08 A3007 RMK AO2 SLP180 T01890078 PNO
Loading
Personal Weather Stations






























Interactive Weather Map
Tropical Storm Tracking
New forecast layout! Learn more

10-Day Weather Forecast

Advertisements
Track Severe Weather on mobile